Time;durP1;ratioP1;P1;durP2;ratioP2;P2;SDS_P1;SDS_P2;PMS_P1;PMS_P2;Temp;Humidity;BMP_temperature;BMP_pressure;BME280_temperature;BME280_humidity;BME280_pressure;Samples;Min_cycle;Max_cycle;Signal;HPM_P1;HPM_P2
2021/01/23 00:00:46;;;;;;;12.05;8.800001;;;;;;;4.26;80.52637;92609.75;;;;
2021/01/23 00:01:47;;;;;;;12.05;8.800001;;;;;;;4.26;80.52637;92609.75;;;;
2021/01/23 00:02:47;;;;;;;12.35;8.7;;;;;;;4.15;81.10449;92619.31;;;;
2021/01/23 00:03:48;;;;;;;12.35;8.7;;;;;;;4.15;81.10449;92619.31;;;;
2021/01/23 00:04:48;;;;;;;12.35;8.7;;;;;;;4.15;81.10449;92619.31;;;;
2021/01/23 00:05:48;;;;;;;12.35;8.7;;;;;;;4.15;81.10449;92619.31;;;;
2021/01/23 00:06:49;;;;;;;12.35;8.7;;;;;;;4.15;81.10449;92619.31;;;;
2021/01/23 00:07:50;;;;;;;12.35;8.7;;;;;;;4.15;81.10449;92619.31;;;;
2021/01/23 00:08:50;;;;;;;12.35;8.7;;;;;;;4.15;81.10449;92619.31;;;;
2021/01/23 00:09:51;;;;;;;12.35;8.7;;;;;;;4.15;81.10449;92619.31;;;;
2021/01/23 00:10:51;;;;;;;12.35;8.7;;;;;;;4.15;81.10449;92619.31;;;;
2021/01/23 00:11:52;;;;;;;12.35;8.7;;;;;;;4.15;81.10449;92619.31;;;;
2021/01/23 00:12:52;;;;;;;12.15;8.749999;;;;;;;4.11;81.6123;92627.04;;;;
2021/01/23 00:13:53;;;;;;;12.15;8.749999;;;;;;;4.11;81.6123;92627.04;;;;
2021/01/23 00:14:53;;;;;;;12.15;8.749999;;;;;;;4.11;81.6123;92627.04;;;;
2021/01/23 00:15:54;;;;;;;12.15;8.749999;;;;;;;4.11;81.6123;92627.04;;;;
2021/01/23 00:16:54;;;;;;;12.15;8.749999;;;;;;;4.11;81.6123;92627.04;;;;
2021/01/23 00:17:55;;;;;;;12.15;8.749999;;;;;;;4.11;81.6123;92627.04;;;;
2021/01/23 00:18:55;;;;;;;12.15;8.749999;;;;;;;4.11;81.6123;92627.04;;;;
2021/01/23 00:19:56;;;;;;;12.15;8.749999;;;;;;;4.11;81.6123;92627.04;;;;
2021/01/23 00:20:56;;;;;;;12.15;8.749999;;;;;;;4.11;81.6123;92627.04;;;;
2021/01/23 00:21:57;;;;;;;12.15;8.749999;;;;;;;4.11;81.6123;92627.04;;;;
2021/01/23 00:22:57;;;;;;;12.15;8.749999;;;;;;;4.11;81.6123;92627.04;;;;
2021/01/23 00:23:58;;;;;;;16.4;10;;;;;;;4;82.01172;92685.05;;;;
2021/01/23 00:24:58;;;;;;;16.4;10;;;;;;;4;82.01172;92685.05;;;;
2021/01/23 00:25:59;;;;;;;16.4;10;;;;;;;4;82.01172;92685.05;;;;
2021/01/23 00:26:59;;;;;;;16.4;10;;;;;;;4;82.01172;92685.05;;;;
2021/01/23 00:28:00;;;;;;;16.4;10;;;;;;;4;82.01172;92685.05;;;;
2021/01/23 00:29:01;;;;;;;16.4;10;;;;;;;4;82.01172;92685.05;;;;
2021/01/23 00:30:01;;;;;;;16.4;10;;;;;;;4;82.01172;92685.05;;;;
2021/01/23 00:31:04;;;;;;;16.4;10;;;;;;;4;82.01172;92685.05;;;;
2021/01/23 00:32:04;;;;;;;16.4;10;;;;;;;4;82.01172;92685.05;;;;
2021/01/23 00:33:05;;;;;;;16.4;10;;;;;;;4;82.01172;92685.05;;;;
2021/01/23 00:34:06;;;;;;;16.4;10;;;;;;;4;82.01172;92685.05;;;;
2021/01/23 00:35:06;;;;;;;15;11.15;;;;;;;3.89;82.47363;92703.8;;;;
2021/01/23 00:36:08;;;;;;;15;11.15;;;;;;;3.89;82.47363;92703.8;;;;
2021/01/23 00:37:09;;;;;;;15;11.15;;;;;;;3.89;82.47363;92703.8;;;;
2021/01/23 00:38:09;;;;;;;15;11.15;;;;;;;3.89;82.47363;92703.8;;;;
2021/01/23 00:39:10;;;;;;;15;11.15;;;;;;;3.89;82.47363;92703.8;;;;
2021/01/23 00:40:10;;;;;;;15;11.15;;;;;;;3.89;82.47363;92703.8;;;;
2021/01/23 00:41:11;;;;;;;15;11.15;;;;;;;3.89;82.47363;92703.8;;;;
2021/01/23 00:42:11;;;;;;;15;11.15;;;;;;;3.89;82.47363;92703.8;;;;
2021/01/23 00:43:12;;;;;;;15;11.15;;;;;;;3.89;82.47363;92703.8;;;;
2021/01/23 00:44:12;;;;;;;15;11.15;;;;;;;3.89;82.47363;92703.8;;;;
2021/01/23 00:45:13;;;;;;;17.85;12.25;;;;;;;3.81;82.99316;92736.85;;;;
2021/01/23 00:46:13;;;;;;;17.85;12.25;;;;;;;3.81;82.99316;92736.85;;;;
2021/01/23 00:47:14;;;;;;;17.85;12.25;;;;;;;3.81;82.99316;92736.85;;;;
2021/01/23 00:48:15;;;;;;;17.85;12.25;;;;;;;3.81;82.99316;92736.85;;;;
2021/01/23 00:49:15;;;;;;;17.85;12.25;;;;;;;3.81;82.99316;92736.85;;;;
2021/01/23 00:50:16;;;;;;;17.85;12.25;;;;;;;3.81;82.99316;92736.85;;;;
2021/01/23 00:51:16;;;;;;;17.85;12.25;;;;;;;3.81;82.99316;92736.85;;;;
2021/01/23 00:52:17;;;;;;;17.85;12.25;;;;;;;3.81;82.99316;92736.85;;;;
2021/01/23 00:53:17;;;;;;;17.85;12.25;;;;;;;3.81;82.99316;92736.85;;;;
2021/01/23 00:54:18;;;;;;;17.85;12.25;;;;;;;3.81;82.99316;92736.85;;;;
2021/01/23 00:55:22;;;;;;;17.85;12.25;;;;;;;3.81;82.99316;92736.85;;;;
2021/01/23 00:56:23;;;;;;;16.7;12.45;;;;;;;3.83;83.50098;92757.42;;;;
2021/01/23 00:57:23;;;;;;;16.7;12.45;;;;;;;3.83;83.50098;92757.42;;;;
2021/01/23 00:58:24;;;;;;;16.7;12.45;;;;;;;3.83;83.50098;92757.42;;;;
2021/01/23 00:59:24;;;;;;;16.7;12.45;;;;;;;3.83;83.50098;92757.42;;;;
2021/01/23 01:00:24;;;;;;;16.7;12.45;;;;;;;3.83;83.50098;92757.42;;;;
2021/01/23 01:01:25;;;;;;;16.7;12.45;;;;;;;3.83;83.50098;92757.42;;;;
2021/01/23 01:02:26;;;;;;;16.7;12.45;;;;;;;3.83;83.50098;92757.42;;;;
2021/01/23 01:03:26;;;;;;;16.7;12.45;;;;;;;3.83;83.50098;92757.42;;;;
2021/01/23 01:04:27;;;;;;;16.7;12.45;;;;;;;3.83;83.50098;92757.42;;;;
2021/01/23 01:05:27;;;;;;;16.7;12.45;;;;;;;3.83;83.50098;92757.42;;;;
2021/01/23 01:06:28;;;;;;;19.2;13.05;;;;;;;3.85;83.94824;92776.09;;;;
2021/01/23 01:07:28;;;;;;;19.2;13.05;;;;;;;3.85;83.94824;92776.09;;;;
2021/01/23 01:08:29;;;;;;;19.2;13.05;;;;;;;3.85;83.94824;92776.09;;;;
2021/01/23 01:09:29;;;;;;;19.2;13.05;;;;;;;3.85;83.94824;92776.09;;;;
2021/01/23 01:10:30;;;;;;;19.2;13.05;;;;;;;3.85;83.94824;92776.09;;;;
2021/01/23 01:11:30;;;;;;;19.2;13.05;;;;;;;3.85;83.94824;92776.09;;;;
2021/01/23 01:12:31;;;;;;;19.2;13.05;;;;;;;3.85;83.94824;92776.09;;;;
2021/01/23 01:13:31;;;;;;;19.2;13.05;;;;;;;3.85;83.94824;92776.09;;;;
2021/01/23 01:14:33;;;;;;;19.2;13.05;;;;;;;3.85;83.94824;92776.09;;;;
2021/01/23 01:15:33;;;;;;;19.2;13.05;;;;;;;3.85;83.94824;92776.09;;;;
2021/01/23 01:16:33;;;;;;;19.2;13.05;;;;;;;3.85;83.94824;92776.09;;;;
2021/01/23 01:17:34;;;;;;;19.75;13;;;;;;;3.88;84.5957;92812.05;;;;
2021/01/23 01:18:35;;;;;;;19.75;13;;;;;;;3.88;84.5957;92812.05;;;;
2021/01/23 01:19:35;;;;;;;19.75;13;;;;;;;3.88;84.5957;92812.05;;;;
2021/01/23 01:20:36;;;;;;;19.75;13;;;;;;;3.88;84.5957;92812.05;;;;
2021/01/23 01:21:36;;;;;;;19.75;13;;;;;;;3.88;84.5957;92812.05;;;;
2021/01/23 01:22:37;;;;;;;19.75;13;;;;;;;3.88;84.5957;92812.05;;;;
2021/01/23 01:23:38;;;;;;;19.75;13;;;;;;;3.88;84.5957;92812.05;;;;
2021/01/23 01:24:39;;;;;;;19.75;13;;;;;;;3.88;84.5957;92812.05;;;;
2021/01/23 01:25:39;;;;;;;19.75;13;;;;;;;3.88;84.5957;92812.05;;;;
2021/01/23 01:26:40;;;;;;;19.75;13;;;;;;;3.88;84.5957;92812.05;;;;
2021/01/23 01:27:40;;;;;;;20.6;14.35;;;;;;;3.94;85.38379;92833.28;;;;
2021/01/23 01:28:40;;;;;;;20.6;14.35;;;;;;;3.94;85.38379;92833.28;;;;
2021/01/23 01:29:41;;;;;;;20.6;14.35;;;;;;;3.94;85.38379;92833.28;;;;
2021/01/23 01:30:42;;;;;;;20.6;14.35;;;;;;;3.94;85.38379;92833.28;;;;
2021/01/23 01:31:42;;;;;;;20.6;14.35;;;;;;;3.94;85.38379;92833.28;;;;
2021/01/23 01:32:42;;;;;;;20.6;14.35;;;;;;;3.94;85.38379;92833.28;;;;
2021/01/23 01:33:43;;;;;;;20.6;14.35;;;;;;;3.94;85.38379;92833.28;;;;
2021/01/23 01:34:43;;;;;;;20.6;14.35;;;;;;;3.94;85.38379;92833.28;;;;
2021/01/23 01:35:44;;;;;;;20.6;14.35;;;;;;;3.94;85.38379;92833.28;;;;
2021/01/23 01:36:44;;;;;;;20.6;14.35;;;;;;;3.94;85.38379;92833.28;;;;
2021/01/23 01:37:45;;;;;;;20.6;14.35;;;;;;;3.94;85.38379;92833.28;;;;
2021/01/23 01:38:46;;;;;;;19.05;12.85;;;;;;;3.99;86.19141;92839.61;;;;
2021/01/23 01:39:46;;;;;;;19.05;12.85;;;;;;;3.99;86.19141;92839.61;;;;
2021/01/23 01:40:47;;;;;;;19.05;12.85;;;;;;;3.99;86.19141;92839.61;;;;
2021/01/23 01:41:50;;;;;;;19.05;12.85;;;;;;;3.99;86.19141;92839.61;;;;
2021/01/23 01:42:51;;;;;;;19.05;12.85;;;;;;;3.99;86.19141;92839.61;;;;
2021/01/23 01:43:51;;;;;;;19.05;12.85;;;;;;;3.99;86.19141;92839.61;;;;
2021/01/23 01:44:53;;;;;;;19.05;12.85;;;;;;;3.99;86.19141;92839.61;;;;
2021/01/23 01:45:54;;;;;;;19.05;12.85;;;;;;;3.99;86.19141;92839.61;;;;
2021/01/23 01:46:55;;;;;;;19.05;12.85;;;;;;;3.99;86.19141;92839.61;;;;
2021/01/23 01:47:58;;;;;;;19.05;12.85;;;;;;;3.99;86.19141;92839.61;;;;
2021/01/23 01:49:01;;;;;;;18.7;12.1;;;;;;;4.01;86.94922;92862.45;;;;
2021/01/23 01:50:02;;;;;;;18.7;12.1;;;;;;;4.01;86.94922;92862.45;;;;
2021/01/23 01:51:03;;;;;;;18.7;12.1;;;;;;;4.01;86.94922;92862.45;;;;
2021/01/23 01:52:04;;;;;;;18.7;12.1;;;;;;;4.01;86.94922;92862.45;;;;
2021/01/23 01:53:05;;;;;;;18.7;12.1;;;;;;;4.01;86.94922;92862.45;;;;
2021/01/23 01:54:06;;;;;;;18.7;12.1;;;;;;;4.01;86.94922;92862.45;;;;
2021/01/23 01:55:08;;;;;;;18.7;12.1;;;;;;;4.01;86.94922;92862.45;;;;
2021/01/23 01:56:10;;;;;;;18.7;12.1;;;;;;;4.01;86.94922;92862.45;;;;
2021/01/23 01:57:11;;;;;;;18.7;12.1;;;;;;;4.01;86.94922;92862.45;;;;
2021/01/23 01:58:11;;;;;;;18.7;12.1;;;;;;;4.01;86.94922;92862.45;;;;
2021/01/23 01:59:12;;;;;;;18.7;12.1;;;;;;;4.01;86.94922;92862.45;;;;
2021/01/23 02:00:12;;;;;;;10.65;7.799999;;;;;;;3.99;87.69238;92921.44;;;;
2021/01/23 02:01:14;;;;;;;10.65;7.799999;;;;;;;3.99;87.69238;92921.44;;;;
2021/01/23 02:02:14;;;;;;;10.65;7.799999;;;;;;;3.99;87.69238;92921.44;;;;
2021/01/23 02:03:27;;;;;;;10.65;7.799999;;;;;;;3.99;87.69238;92921.44;;;;
2021/01/23 02:04:39;;;;;;;10.65;7.799999;;;;;;;3.99;87.69238;92921.44;;;;
2021/01/23 02:05:50;;;;;;;10.65;7.799999;;;;;;;3.99;87.69238;92921.44;;;;
2021/01/23 02:07:01;;;;;;;10.65;7.799999;;;;;;;3.99;87.69238;92921.44;;;;
2021/01/23 02:08:12;;;;;;;10.65;7.799999;;;;;;;3.99;87.69238;92921.44;;;;
2021/01/23 02:09:24;;;;;;;10.65;7.799999;;;;;;;3.99;87.69238;92921.44;;;;
2021/01/23 02:10:41;;;;;;;5.4;4.25;;;;;;;3.86;88.29785;92952.54;;;;
2021/01/23 02:11:48;;;;;;;5.4;4.25;;;;;;;3.86;88.29785;92952.54;;;;
2021/01/23 02:12:58;;;;;;;5.4;4.25;;;;;;;3.86;88.29785;92952.54;;;;
2021/01/23 02:14:09;;;;;;;5.4;4.25;;;;;;;3.86;88.29785;92952.54;;;;
2021/01/23 02:15:19;;;;;;;5.4;4.25;;;;;;;3.86;88.29785;92952.54;;;;
2021/01/23 02:16:23;;;;;;;5.4;4.25;;;;;;;3.86;88.29785;92952.54;;;;
2021/01/23 02:17:26;;;;;;;5.4;4.25;;;;;;;3.86;88.29785;92952.54;;;;
2021/01/23 02:18:31;;;;;;;5.4;4.25;;;;;;;3.86;88.29785;92952.54;;;;
2021/01/23 02:19:37;;;;;;;5.4;4.25;;;;;;;3.86;88.29785;92952.54;;;;
2021/01/23 02:20:57;;;;;;;2.8;2.35;;;;;;;3.44;88.66113;92963.95;;;;
2021/01/23 02:22:35;;;;;;;2.8;2.35;;;;;;;3.44;88.66113;92963.95;;;;
2021/01/23 02:23:56;;;;;;;2.8;2.35;;;;;;;3.44;88.66113;92963.95;;;;
2021/01/23 02:25:01;;;;;;;2.8;2.35;;;;;;;3.44;88.66113;92963.95;;;;
2021/01/23 02:26:04;;;;;;;2.8;2.35;;;;;;;3.44;88.66113;92963.95;;;;
2021/01/23 02:27:10;;;;;;;2.8;2.35;;;;;;;3.44;88.66113;92963.95;;;;
2021/01/23 02:28:23;;;;;;;2.8;2.35;;;;;;;3.44;88.66113;92963.95;;;;
2021/01/23 02:29:41;;;;;;;2.8;2.35;;;;;;;3.44;88.66113;92963.95;;;;
2021/01/23 02:30:56;;;;;;;2.8;2.35;;;;;;;3.44;88.66113;92963.95;;;;
2021/01/23 02:32:06;;;;;;;2.65;2.35;;;;;;;2.99;89.29004;92993.09;;;;
2021/01/23 02:33:08;;;;;;;2.65;2.35;;;;;;;2.99;89.29004;92993.09;;;;
2021/01/23 02:34:10;;;;;;;2.65;2.35;;;;;;;2.99;89.29004;92993.09;;;;
2021/01/23 02:35:13;;;;;;;2.65;2.35;;;;;;;2.99;89.29004;92993.09;;;;
2021/01/23 02:36:16;;;;;;;2.65;2.35;;;;;;;2.99;89.29004;92993.09;;;;
2021/01/23 02:37:20;;;;;;;2.65;2.35;;;;;;;2.99;89.29004;92993.09;;;;
2021/01/23 02:38:22;;;;;;;2.65;2.35;;;;;;;2.99;89.29004;92993.09;;;;
2021/01/23 02:39:23;;;;;;;2.65;2.35;;;;;;;2.99;89.29004;92993.09;;;;
2021/01/23 02:40:25;;;;;;;2.65;2.35;;;;;;;2.99;89.29004;92993.09;;;;
2021/01/23 02:41:26;;;;;;;2.65;2.35;;;;;;;2.99;89.29004;92993.09;;;;
2021/01/23 02:42:26;;;;;;;2.15;1.95;;;;;;;2.6;89.8252;93029.69;;;;
2021/01/23 02:43:27;;;;;;;2.15;1.95;;;;;;;2.6;89.8252;93029.69;;;;
2021/01/23 02:44:27;;;;;;;2.15;1.95;;;;;;;2.6;89.8252;93029.69;;;;
2021/01/23 02:45:28;;;;;;;2.15;1.95;;;;;;;2.6;89.8252;93029.69;;;;
2021/01/23 02:46:28;;;;;;;2.15;1.95;;;;;;;2.6;89.8252;93029.69;;;;
2021/01/23 02:47:29;;;;;;;2.15;1.95;;;;;;;2.6;89.8252;93029.69;;;;
2021/01/23 02:48:29;;;;;;;2.15;1.95;;;;;;;2.6;89.8252;93029.69;;;;
2021/01/23 02:49:30;;;;;;;2.15;1.95;;;;;;;2.6;89.8252;93029.69;;;;
2021/01/23 02:50:31;;;;;;;2.15;1.95;;;;;;;2.6;89.8252;93029.69;;;;
2021/01/23 02:51:31;;;;;;;2.15;1.95;;;;;;;2.6;89.8252;93029.69;;;;
2021/01/23 02:52:36;;;;;;;2.15;1.95;;;;;;;2.6;89.8252;93029.69;;;;
2021/01/23 02:53:47;;;;;;;1.8;1.6;;;;;;;2.32;90.58301;93058.51;;;;
2021/01/23 02:54:50;;;;;;;1.8;1.6;;;;;;;2.32;90.58301;93058.51;;;;
2021/01/23 02:55:56;;;;;;;1.8;1.6;;;;;;;2.32;90.58301;93058.51;;;;
2021/01/23 02:57:05;;;;;;;1.8;1.6;;;;;;;2.32;90.58301;93058.51;;;;
2021/01/23 02:58:11;;;;;;;1.8;1.6;;;;;;;2.32;90.58301;93058.51;;;;
2021/01/23 02:59:15;;;;;;;1.8;1.6;;;;;;;2.32;90.58301;93058.51;;;;
2021/01/23 03:00:16;;;;;;;1.8;1.6;;;;;;;2.32;90.58301;93058.51;;;;
2021/01/23 03:01:19;;;;;;;1.8;1.6;;;;;;;2.32;90.58301;93058.51;;;;
2021/01/23 03:02:22;;;;;;;1.8;1.6;;;;;;;2.32;90.58301;93058.51;;;;
2021/01/23 03:03:24;;;;;;;1.8;1.6;;;;;;;2.32;90.58301;93058.51;;;;
2021/01/23 03:04:26;;;;;;;2.1;1.7;;;;;;;2.1;90.95508;93098.32;;;;
2021/01/23 03:05:28;;;;;;;2.1;1.7;;;;;;;2.1;90.95508;93098.32;;;;
2021/01/23 03:06:32;;;;;;;2.1;1.7;;;;;;;2.1;90.95508;93098.32;;;;
2021/01/23 03:07:33;;;;;;;2.1;1.7;;;;;;;2.1;90.95508;93098.32;;;;
2021/01/23 03:08:33;;;;;;;2.1;1.7;;;;;;;2.1;90.95508;93098.32;;;;
2021/01/23 03:09:34;;;;;;;2.1;1.7;;;;;;;2.1;90.95508;93098.32;;;;
2021/01/23 03:10:35;;;;;;;2.1;1.7;;;;;;;2.1;90.95508;93098.32;;;;
2021/01/23 03:11:37;;;;;;;2.1;1.7;;;;;;;2.1;90.95508;93098.32;;;;
2021/01/23 03:12:37;;;;;;;2.1;1.7;;;;;;;2.1;90.95508;93098.32;;;;
2021/01/23 03:13:38;;;;;;;2.1;1.7;;;;;;;2.1;90.95508;93098.32;;;;
2021/01/23 03:14:38;;;;;;;1.6;1.5;;;;;;;2;91.90332;93105.7;;;;
2021/01/23 03:15:39;;;;;;;1.6;1.5;;;;;;;2;91.90332;93105.7;;;;
2021/01/23 03:16:41;;;;;;;1.6;1.5;;;;;;;2;91.90332;93105.7;;;;
2021/01/23 03:17:45;;;;;;;1.6;1.5;;;;;;;2;91.90332;93105.7;;;;
2021/01/23 03:18:46;;;;;;;1.6;1.5;;;;;;;2;91.90332;93105.7;;;;
2021/01/23 03:19:46;;;;;;;1.6;1.5;;;;;;;2;91.90332;93105.7;;;;
2021/01/23 03:20:47;;;;;;;1.6;1.5;;;;;;;2;91.90332;93105.7;;;;
2021/01/23 03:21:47;;;;;;;1.6;1.5;;;;;;;2;91.90332;93105.7;;;;
2021/01/23 03:22:50;;;;;;;1.6;1.5;;;;;;;2;91.90332;93105.7;;;;
2021/01/23 03:23:51;;;;;;;1.6;1.5;;;;;;;2;91.90332;93105.7;;;;
2021/01/23 03:24:51;;;;;;;1.6;1.5;;;;;;;2;91.90332;93105.7;;;;
2021/01/23 03:25:52;;;;;;;1.3;1.2;;;;;;;1.92;92.63574;93142.53;;;;
2021/01/23 03:26:52;;;;;;;1.3;1.2;;;;;;;1.92;92.63574;93142.53;;;;
2021/01/23 03:27:53;;;;;;;1.3;1.2;;;;;;;1.92;92.63574;93142.53;;;;
2021/01/23 03:28:54;;;;;;;1.3;1.2;;;;;;;1.92;92.63574;93142.53;;;;
2021/01/23 03:29:54;;;;;;;1.3;1.2;;;;;;;1.92;92.63574;93142.53;;;;
2021/01/23 03:30:54;;;;;;;1.3;1.2;;;;;;;1.92;92.63574;93142.53;;;;
2021/01/23 03:31:55;;;;;;;1.3;1.2;;;;;;;1.92;92.63574;93142.53;;;;
2021/01/23 03:32:55;;;;;;;1.3;1.2;;;;;;;1.92;92.63574;93142.53;;;;
2021/01/23 03:33:57;;;;;;;1.3;1.2;;;;;;;1.92;92.63574;93142.53;;;;
2021/01/23 03:34:57;;;;;;;1.3;1.2;;;;;;;1.92;92.63574;93142.53;;;;
2021/01/23 03:35:58;;;;;;;1.2;1.1;;;;;;;1.85;93.70605;93195.48;;;;
2021/01/23 03:36:58;;;;;;;1.2;1.1;;;;;;;1.85;93.70605;93195.48;;;;
2021/01/23 03:37:59;;;;;;;1.2;1.1;;;;;;;1.85;93.70605;93195.48;;;;
2021/01/23 03:38:59;;;;;;;1.2;1.1;;;;;;;1.85;93.70605;93195.48;;;;
2021/01/23 03:40:00;;;;;;;1.2;1.1;;;;;;;1.85;93.70605;93195.48;;;;
2021/01/23 03:41:02;;;;;;;1.2;1.1;;;;;;;1.85;93.70605;93195.48;;;;
2021/01/23 03:42:03;;;;;;;1.2;1.1;;;;;;;1.85;93.70605;93195.48;;;;
2021/01/23 03:43:04;;;;;;;1.2;1.1;;;;;;;1.85;93.70605;93195.48;;;;
2021/01/23 03:44:04;;;;;;;1.2;1.1;;;;;;;1.85;93.70605;93195.48;;;;
2021/01/23 03:45:05;;;;;;;1.2;1.1;;;;;;;1.85;93.70605;93195.48;;;;
2021/01/23 03:46:08;;;;;;;1.2;1.1;;;;;;;1.85;93.70605;93195.48;;;;
2021/01/23 03:47:09;;;;;;;1.35;1.25;;;;;;;1.8;94.03711;93193.64;;;;
2021/01/23 03:48:09;;;;;;;1.35;1.25;;;;;;;1.8;94.03711;93193.64;;;;
2021/01/23 03:49:10;;;;;;;1.35;1.25;;;;;;;1.8;94.03711;93193.64;;;;
2021/01/23 03:50:10;;;;;;;1.35;1.25;;;;;;;1.8;94.03711;93193.64;;;;
2021/01/23 03:51:11;;;;;;;1.35;1.25;;;;;;;1.8;94.03711;93193.64;;;;
2021/01/23 03:52:12;;;;;;;1.35;1.25;;;;;;;1.8;94.03711;93193.64;;;;
2021/01/23 03:53:13;;;;;;;1.35;1.25;;;;;;;1.8;94.03711;93193.64;;;;
2021/01/23 03:54:13;;;;;;;1.35;1.25;;;;;;;1.8;94.03711;93193.64;;;;
2021/01/23 03:55:13;;;;;;;1.35;1.25;;;;;;;1.8;94.03711;93193.64;;;;
2021/01/23 03:56:14;;;;;;;1.35;1.25;;;;;;;1.8;94.03711;93193.64;;;;
2021/01/23 03:57:14;;;;;;;1.1;1;;;;;;;1.76;94.87305;93205.78;;;;
2021/01/23 03:58:15;;;;;;;1.1;1;;;;;;;1.76;94.87305;93205.78;;;;
2021/01/23 03:59:16;;;;;;;1.1;1;;;;;;;1.76;94.87305;93205.78;;;;
2021/01/23 04:00:17;;;;;;;1.1;1;;;;;;;1.76;94.87305;93205.78;;;;
2021/01/23 04:01:18;;;;;;;1.1;1;;;;;;;1.76;94.87305;93205.78;;;;
2021/01/23 04:02:19;;;;;;;1.1;1;;;;;;;1.76;94.87305;93205.78;;;;
2021/01/23 04:03:20;;;;;;;1.1;1;;;;;;;1.76;94.87305;93205.78;;;;
2021/01/23 04:04:20;;;;;;;1.1;1;;;;;;;1.76;94.87305;93205.78;;;;
2021/01/23 04:05:20;;;;;;;1.1;1;;;;;;;1.76;94.87305;93205.78;;;;
2021/01/23 04:06:21;;;;;;;1.1;1;;;;;;;1.76;94.87305;93205.78;;;;
2021/01/23 04:07:21;;;;;;;1.1;1;;;;;;;1.76;94.87305;93205.78;;;;
2021/01/23 04:08:22;;;;;;;1.2;1;;;;;;;1.73;95.8252;93211.95;;;;
2021/01/23 04:09:23;;;;;;;1.2;1;;;;;;;1.73;95.8252;93211.95;;;;
2021/01/23 04:10:23;;;;;;;1.2;1;;;;;;;1.73;95.8252;93211.95;;;;
2021/01/23 04:11:23;;;;;;;1.2;1;;;;;;;1.73;95.8252;93211.95;;;;
2021/01/23 04:12:24;;;;;;;1.2;1;;;;;;;1.73;95.8252;93211.95;;;;
2021/01/23 04:13:24;;;;;;;1.2;1;;;;;;;1.73;95.8252;93211.95;;;;
2021/01/23 04:14:25;;;;;;;1.2;1;;;;;;;1.73;95.8252;93211.95;;;;
2021/01/23 04:15:26;;;;;;;1.2;1;;;;;;;1.73;95.8252;93211.95;;;;
2021/01/23 04:16:26;;;;;;;1.2;1;;;;;;;1.73;95.8252;93211.95;;;;
2021/01/23 04:17:27;;;;;;;1.2;1;;;;;;;1.73;95.8252;93211.95;;;;
2021/01/23 04:18:27;;;;;;;0.9;0.9;;;;;;;1.72;96.5625;93227.64;;;;
2021/01/23 04:19:28;;;;;;;0.9;0.9;;;;;;;1.72;96.5625;93227.64;;;;
2021/01/23 04:20:28;;;;;;;0.9;0.9;;;;;;;1.72;96.5625;93227.64;;;;
2021/01/23 04:21:29;;;;;;;0.9;0.9;;;;;;;1.72;96.5625;93227.64;;;;
2021/01/23 04:22:29;;;;;;;0.9;0.9;;;;;;;1.72;96.5625;93227.64;;;;
2021/01/23 04:23:30;;;;;;;0.9;0.9;;;;;;;1.72;96.5625;93227.64;;;;
2021/01/23 04:24:30;;;;;;;0.9;0.9;;;;;;;1.72;96.5625;93227.64;;;;
2021/01/23 04:25:31;;;;;;;0.9;0.9;;;;;;;1.72;96.5625;93227.64;;;;
2021/01/23 04:26:31;;;;;;;0.9;0.9;;;;;;;1.72;96.5625;93227.64;;;;
2021/01/23 04:27:32;;;;;;;0.9;0.9;;;;;;;1.72;96.5625;93227.64;;;;
2021/01/23 04:28:33;;;;;;;0.9;0.9;;;;;;;1.72;96.5625;93227.64;;;;
2021/01/23 04:29:33;;;;;;;0.85;0.85;;;;;;;1.62;97.16309;93224.36;;;;
2021/01/23 04:30:34;;;;;;;0.85;0.85;;;;;;;1.62;97.16309;93224.36;;;;
2021/01/23 04:31:34;;;;;;;0.85;0.85;;;;;;;1.62;97.16309;93224.36;;;;
2021/01/23 04:32:36;;;;;;;0.85;0.85;;;;;;;1.62;97.16309;93224.36;;;;
2021/01/23 04:33:36;;;;;;;0.85;0.85;;;;;;;1.62;97.16309;93224.36;;;;
2021/01/23 04:34:37;;;;;;;0.85;0.85;;;;;;;1.62;97.16309;93224.36;;;;
2021/01/23 04:35:37;;;;;;;0.85;0.85;;;;;;;1.62;97.16309;93224.36;;;;
2021/01/23 04:36:38;;;;;;;0.85;0.85;;;;;;;1.62;97.16309;93224.36;;;;
2021/01/23 04:37:38;;;;;;;0.85;0.85;;;;;;;1.62;97.16309;93224.36;;;;
2021/01/23 04:38:39;;;;;;;0.85;0.85;;;;;;;1.62;97.16309;93224.36;;;;
2021/01/23 04:39:40;;;;;;;1.65;0.9;;;;;;;1.53;98.23633;93262.84;;;;
2021/01/23 04:40:40;;;;;;;1.65;0.9;;;;;;;1.53;98.23633;93262.84;;;;
2021/01/23 04:41:41;;;;;;;1.65;0.9;;;;;;;1.53;98.23633;93262.84;;;;
2021/01/23 04:42:41;;;;;;;1.65;0.9;;;;;;;1.53;98.23633;93262.84;;;;
2021/01/23 04:43:43;;;;;;;1.65;0.9;;;;;;;1.53;98.23633;93262.84;;;;
2021/01/23 04:44:44;;;;;;;1.65;0.9;;;;;;;1.53;98.23633;93262.84;;;;
2021/01/23 04:45:44;;;;;;;1.65;0.9;;;;;;;1.53;98.23633;93262.84;;;;
2021/01/23 04:46:44;;;;;;;1.65;0.9;;;;;;;1.53;98.23633;93262.84;;;;
2021/01/23 04:47:45;;;;;;;1.65;0.9;;;;;;;1.53;98.23633;93262.84;;;;
2021/01/23 04:48:46;;;;;;;1.65;0.9;;;;;;;1.53;98.23633;93262.84;;;;
2021/01/23 04:49:46;;;;;;;1.65;0.9;;;;;;;1.53;98.23633;93262.84;;;;
2021/01/23 04:50:47;;;;;;;0.9;0.9;;;;;;;1.48;99.20117;93320.4;;;;
2021/01/23 04:51:47;;;;;;;0.9;0.9;;;;;;;1.48;99.20117;93320.4;;;;
2021/01/23 04:52:48;;;;;;;0.9;0.9;;;;;;;1.48;99.20117;93320.4;;;;
2021/01/23 04:53:49;;;;;;;0.9;0.9;;;;;;;1.48;99.20117;93320.4;;;;
2021/01/23 04:54:49;;;;;;;0.9;0.9;;;;;;;1.48;99.20117;93320.4;;;;
2021/01/23 04:55:50;;;;;;;0.9;0.9;;;;;;;1.48;99.20117;93320.4;;;;
2021/01/23 04:56:51;;;;;;;0.9;0.9;;;;;;;1.48;99.20117;93320.4;;;;
2021/01/23 04:57:51;;;;;;;0.9;0.9;;;;;;;1.48;99.20117;93320.4;;;;
2021/01/23 04:58:52;;;;;;;0.9;0.9;;;;;;;1.48;99.20117;93320.4;;;;
2021/01/23 04:59:52;;;;;;;0.9;0.9;;;;;;;1.48;99.20117;93320.4;;;;
2021/01/23 05:00:53;;;;;;;0.9;0.9;;;;;;;1.48;99.20117;93320.4;;;;
2021/01/23 05:01:54;;;;;;;0.75;0.75;;;;;;;1.43;99.6582;93338.39;;;;
2021/01/23 05:03:26;;;;;;;0.75;0.75;;;;;;;1.43;99.6582;93338.39;;;;
2021/01/23 05:04:27;;;;;;;0.75;0.75;;;;;;;1.43;99.6582;93338.39;;;;
2021/01/23 05:05:41;;;;;;;0.75;0.75;;;;;;;1.43;99.6582;93338.39;;;;
2021/01/23 05:06:42;;;;;;;0.75;0.75;;;;;;;1.43;99.6582;93338.39;;;;
2021/01/23 05:07:57;;;;;;;0.75;0.75;;;;;;;1.43;99.6582;93338.39;;;;
2021/01/23 05:09:06;;;;;;;0.75;0.75;;;;;;;1.43;99.6582;93338.39;;;;
2021/01/23 05:10:07;;;;;;;0.75;0.75;;;;;;;1.43;99.6582;93338.39;;;;
2021/01/23 05:11:13;;;;;;;0.75;0.75;;;;;;;1.43;99.6582;93338.39;;;;
2021/01/23 05:12:14;;;;;;;0.7;0.7;;;;;;;1.37;99.98535;93337.16;;;;
2021/01/23 05:13:32;;;;;;;0.7;0.7;;;;;;;1.37;99.98535;93337.16;;;;
2021/01/23 05:14:32;;;;;;;0.7;0.7;;;;;;;1.37;99.98535;93337.16;;;;
2021/01/23 05:15:33;;;;;;;0.7;0.7;;;;;;;1.37;99.98535;93337.16;;;;
2021/01/23 05:16:33;;;;;;;0.7;0.7;;;;;;;1.37;99.98535;93337.16;;;;
2021/01/23 05:17:34;;;;;;;0.7;0.7;;;;;;;1.37;99.98535;93337.16;;;;
2021/01/23 05:18:53;;;;;;;0.7;0.7;;;;;;;1.37;99.98535;93337.16;;;;
2021/01/23 05:19:55;;;;;;;0.7;0.7;;;;;;;1.37;99.98535;93337.16;;;;
2021/01/23 05:20:56;;;;;;;0.7;0.7;;;;;;;1.37;99.98535;93337.16;;;;
2021/01/23 05:21:56;;;;;;;0.7;0.7;;;;;;;1.37;99.98535;93337.16;;;;
2021/01/23 05:23:01;;;;;;;0.8;0.8;;;;;;;1.34;100;93356.62;;;;
2021/01/23 05:24:03;;;;;;;0.8;0.8;;;;;;;1.34;100;93356.62;;;;
2021/01/23 05:25:08;;;;;;;0.8;0.8;;;;;;;1.34;100;93356.62;;;;
2021/01/23 05:26:11;;;;;;;0.8;0.8;;;;;;;1.34;100;93356.62;;;;
2021/01/23 05:27:24;;;;;;;0.8;0.8;;;;;;;1.34;100;93356.62;;;;
2021/01/23 05:28:24;;;;;;;0.8;0.8;;;;;;;1.34;100;93356.62;;;;
2021/01/23 05:29:27;;;;;;;0.8;0.8;;;;;;;1.34;100;93356.62;;;;
2021/01/23 05:30:27;;;;;;;0.8;0.8;;;;;;;1.34;100;93356.62;;;;
2021/01/23 05:31:41;;;;;;;0.8;0.8;;;;;;;1.34;100;93356.62;;;;
2021/01/23 05:32:42;;;;;;;0.8;0.8;;;;;;;1.34;100;93356.62;;;;
2021/01/23 05:33:43;;;;;;;0.8;0.8;;;;;;;1.38;100;93359.53;;;;
2021/01/23 05:34:43;;;;;;;0.8;0.8;;;;;;;1.38;100;93359.53;;;;
2021/01/23 05:35:44;;;;;;;0.8;0.8;;;;;;;1.38;100;93359.53;;;;
2021/01/23 05:36:56;;;;;;;0.8;0.8;;;;;;;1.38;100;93359.53;;;;
2021/01/23 05:37:58;;;;;;;0.8;0.8;;;;;;;1.38;100;93359.53;;;;
2021/01/23 05:38:58;;;;;;;0.8;0.8;;;;;;;1.38;100;93359.53;;;;
2021/01/23 05:39:59;;;;;;;0.8;0.8;;;;;;;1.38;100;93359.53;;;;
2021/01/23 05:41:00;;;;;;;0.8;0.8;;;;;;;1.38;100;93359.53;;;;
2021/01/23 05:42:11;;;;;;;0.8;0.8;;;;;;;1.38;100;93359.53;;;;
2021/01/23 05:43:12;;;;;;;0.8;0.8;;;;;;;1.38;100;93359.53;;;;
2021/01/23 05:44:13;;;;;;;1;1;;;;;;;1.41;100;93382.08;;;;
2021/01/23 05:45:13;;;;;;;1;1;;;;;;;1.41;100;93382.08;;;;
2021/01/23 05:46:14;;;;;;;1;1;;;;;;;1.41;100;93382.08;;;;
2021/01/23 05:47:16;;;;;;;1;1;;;;;;;1.41;100;93382.08;;;;
2021/01/23 05:48:23;;;;;;;1;1;;;;;;;1.41;100;93382.08;;;;
2021/01/23 05:49:24;;;;;;;1;1;;;;;;;1.41;100;93382.08;;;;
2021/01/23 05:50:25;;;;;;;1;1;;;;;;;1.41;100;93382.08;;;;
2021/01/23 05:51:25;;;;;;;1;1;;;;;;;1.41;100;93382.08;;;;
2021/01/23 05:52:26;;;;;;;1;1;;;;;;;1.41;100;93382.08;;;;
2021/01/23 05:53:27;;;;;;;1;1;;;;;;;1.41;100;93382.08;;;;
2021/01/23 05:54:28;;;;;;;1.15;1.1;;;;;;;1.43;100;93410.58;;;;
2021/01/23 05:55:29;;;;;;;1.15;1.1;;;;;;;1.43;100;93410.58;;;;
2021/01/23 05:56:29;;;;;;;1.15;1.1;;;;;;;1.43;100;93410.58;;;;
2021/01/23 05:57:30;;;;;;;1.15;1.1;;;;;;;1.43;100;93410.58;;;;
2021/01/23 05:58:32;;;;;;;1.15;1.1;;;;;;;1.43;100;93410.58;;;;
2021/01/23 05:59:34;;;;;;;1.15;1.1;;;;;;;1.43;100;93410.58;;;;
2021/01/23 06:00:35;;;;;;;1.15;1.1;;;;;;;1.43;100;93410.58;;;;
2021/01/23 06:01:36;;;;;;;1.15;1.1;;;;;;;1.43;100;93410.58;;;;
2021/01/23 06:02:38;;;;;;;1.15;1.1;;;;;;;1.43;100;93410.58;;;;
2021/01/23 06:03:41;;;;;;;1.15;1.1;;;;;;;1.43;100;93410.58;;;;
2021/01/23 06:04:44;;;;;;;1.15;1.1;;;;;;;1.43;100;93410.58;;;;
2021/01/23 06:05:48;;;;;;;1.25;1.15;;;;;;;1.43;100;93442.49;;;;
2021/01/23 06:06:55;;;;;;;1.25;1.15;;;;;;;1.43;100;93442.49;;;;